KCFD/CFD METAR and TAF weather

Enter ICAO airport designator
Station Type Date Time Source
KCFD METAR 2021/05/10 01:35 UTC NOAA

KCFD 100135Z AUTO 15008KT 10SM SCT027 BKN050 BKN065 27/22 A2980 RMK AO2 LTG DSNT NE AND E T02700223


Station Type Date Time Source
KCFD Decoded METAR 2021/05/10 01:35 UTC NOAA

Station name not available
May 09, 2021 - 09:35 PM EDT / 2021.05.10 0135 UTC
Wind: from the SSE (150 degrees) at 9 MPH (8 KT):0
Visibility: 10 mile(s):0
Sky conditions: mostly cloudy
Weather: Lightning observed
Temperature: 80.6 F (27.0 C)
Dew Point: 72.1 F (22.3 C)
Relative Humidity: 75%
Pressure (altimeter): 29.8 in. Hg (1009 hPa)
ob: KCFD 100135Z AUTO 15008KT 10SM SCT027 BKN050 BKN065 27/22 A2980 RMK AO2 LTG DSNT NE AND E T02700223
cycle: 1

Station Type Date Time Source
KCFD TAF UTC NOAA

Error!

Example: see airport list